Řízení letového provozu České republiky
OPMET data - Ceska Republika Aktualizace: 23.07.2016 19:06:15  UTC
SIGMET / AIRMET - NIL
Warning / Vystraha - NIL
 
METAR / SPECI
METAR LKCV 231900Z 05003KT CAVOK 24/17 Q1017 NOSIG=
METAR LKKB 231900Z 35006KT CAVOK 21/19 Q1017 NOSIG =
METAR LKKU NIL
METAR LKKV 231900Z 05004KT 020V090 CAVOK 18/16 Q1018 RMK REG QNH 1014=
METAR LKLN 231900Z AUTO VRB02KT CAVOK 21/18 Q1017=
METAR LKMT 231900Z 04003KT CAVOK 24/14 Q1017 NOSIG RMK REG QNH 1014=
METAR LKNA 231900Z 08004KT CAVOK 24/16 Q1018 NOSIG=
METAR LKPD 231900Z 13004KT 080V170 CAVOK 27/15 Q1016 NOSIG =
METAR LKPR 231900Z 36006KT 310V020 CAVOK 20/18 Q1017 NOSIG RMK REG QNH 1014=
METAR LKTB 231900Z 06004KT CAVOK 26/15 Q1016 NOSIG RMK REG QNH 1014=
METAR LKVO NIL
TAF
TAF LKCV 231700Z 2318/2418 VRB02KT CAVOK      TEMPO 2318/2321 SCT050TCU      TEMPO 2401/2411 SCT035      TEMPO 2412/2418 28008KT SCT050TCU=
TAF LKKB 231700Z 2318/2418 22006KT CAVOK      TEMPO 2318/2412 23014KT SHRA BKN040TCU      BECMG 2410/2412 SCT030      PROB40 TEMPO 2412/2418 18016KT SHRA BKN035TCU=
TAF LKKU NIL
TAF LKKV 231700Z 2318/2424 VRB02KT 9999 SCT040      BECMG 2318/2320 VRB02KT      TEMPO 2318/2418 7000 SHRA SCT030TCU      PROB30 TEMPO 2318/2418 2500 TSRA SCT020CB=
TAF LKLN NIL
TAF LKMT 231700Z 2318/2424 04006KT CAVOK      TEMPO 2414/2418 8000 SHRA SCT040TCU      PROB30 TEMPO 2414/2418 3000 TSRA SCT030CB=
TAF LKNA 231700Z 2318/2418 15006KT CAVOK=
TAF LKPD 231700Z 2318/2418 09006KT CAVOK      BECMG 2318/2320 VRB02KT      BECMG 2412/2414 27008KT=
TAF LKPR 231700Z 2318/2424 07008KT CAVOK      BECMG 2318/2320 VRB02KT      TEMPO 2318/2321 8000 SHRA SCT040TCU      PROB30 TEMPO 2318/2321 3000 TSRA SCT030CB      TEMPO 2400/2418 8000 SHRA SCT040TCU      PROB30 TEMPO 2400/2418 3000 TSRA SCT030CB=
TAF LKTB 231700Z 2318/2424 07006KT CAVOK      TEMPO 2318/2321 8000 SHRA SCT040TCU      PROB30 TEMPO 2318/2321 3000 TSRA SCT030CB      TEMPO 2412/2418 8000 SHRA SCT040TCU      PROB30 TEMPO 2412/2418 3000 TSRA SCT030CB=
TAF LKVO NIL